sensor_id;sensor_type;location;lat;lon;timestamp;temperature;humidity
5806;DHT22;2929;50.810;8.342;2023-12-22T00:00:49;4.30;99.90
5806;DHT22;2929;50.810;8.342;2023-12-22T00:03:17;4.30;99.90
5806;DHT22;2929;50.810;8.342;2023-12-22T00:05:44;4.30;99.90
5806;DHT22;2929;50.810;8.342;2023-12-22T00:08:11;4.30;99.90
5806;DHT22;2929;50.810;8.342;2023-12-22T00:10:39;4.30;99.90
5806;DHT22;2929;50.810;8.342;2023-12-22T00:13:08;4.30;99.90
5806;DHT22;2929;50.810;8.342;2023-12-22T00:15:35;4.30;99.90
5806;DHT22;2929;50.810;8.342;2023-12-22T00:18:02;4.30;99.90
5806;DHT22;2929;50.810;8.342;2023-12-22T00:20:30;4.20;99.90
5806;DHT22;2929;50.810;8.342;2023-12-22T00:22:57;4.20;99.90
5806;DHT22;2929;50.810;8.342;2023-12-22T00:25:24;4.10;99.90
5806;DHT22;2929;50.810;8.342;2023-12-22T00:27:51;4.10;99.90
5806;DHT22;2929;50.810;8.342;2023-12-22T00:30:19;4.10;99.90
5806;DHT22;2929;50.810;8.342;2023-12-22T00:32:46;4.00;99.90
5806;DHT22;2929;50.810;8.342;2023-12-22T00:35:13;3.90;99.90
5806;DHT22;2929;50.810;8.342;2023-12-22T00:37:40;3.90;99.90
5806;DHT22;2929;50.810;8.342;2023-12-22T00:40:08;3.80;99.90
5806;DHT22;2929;50.810;8.342;2023-12-22T00:42:35;3.80;99.90
5806;DHT22;2929;50.810;8.342;2023-12-22T00:45:02;3.80;99.90
5806;DHT22;2929;50.810;8.342;2023-12-22T00:47:31;3.70;99.90
5806;DHT22;2929;50.810;8.342;2023-12-22T00:50:00;3.60;99.90
5806;DHT22;2929;50.810;8.342;2023-12-22T00:52:27;3.60;99.90
5806;DHT22;2929;50.810;8.342;2023-12-22T00:54:54;3.50;99.90
5806;DHT22;2929;50.810;8.342;2023-12-22T00:57:22;3.50;99.90
5806;DHT22;2929;50.810;8.342;2023-12-22T00:59:49;3.50;99.90
5806;DHT22;2929;50.810;8.342;2023-12-22T01:02:17;3.50;99.90
5806;DHT22;2929;50.810;8.342;2023-12-22T01:04:45;3.50;99.90
5806;DHT22;2929;50.810;8.342;2023-12-22T01:07:12;3.50;99.90
5806;DHT22;2929;50.810;8.342;2023-12-22T01:09:39;3.40;99.90
5806;DHT22;2929;50.810;8.342;2023-12-22T01:12:06;3.40;99.90
5806;DHT22;2929;50.810;8.342;2023-12-22T01:14:34;3.40;99.90
5806;DHT22;2929;50.810;8.342;2023-12-22T01:17:01;3.40;99.90
5806;DHT22;2929;50.810;8.342;2023-12-22T01:19:28;3.40;99.90
5806;DHT22;2929;50.810;8.342;2023-12-22T01:21:57;3.30;99.90
5806;DHT22;2929;50.810;8.342;2023-12-22T01:24:24;3.30;99.90
5806;DHT22;2929;50.810;8.342;2023-12-22T01:26:51;3.30;99.90
5806;DHT22;2929;50.810;8.342;2023-12-22T01:29:18;3.30;99.90
5806;DHT22;2929;50.810;8.342;2023-12-22T01:31:45;3.30;99.90
5806;DHT22;2929;50.810;8.342;2023-12-22T01:34:12;3.30;99.90
5806;DHT22;2929;50.810;8.342;2023-12-22T01:36:39;3.30;99.90
5806;DHT22;2929;50.810;8.342;2023-12-22T01:39:09;3.40;99.90
5806;DHT22;2929;50.810;8.342;2023-12-22T01:41:37;3.40;99.90
5806;DHT22;2929;50.810;8.342;2023-12-22T01:44:05;3.40;99.90
5806;DHT22;2929;50.810;8.342;2023-12-22T01:46:34;3.30;99.90
5806;DHT22;2929;50.810;8.342;2023-12-22T01:49:03;3.40;99.90
5806;DHT22;2929;50.810;8.342;2023-12-22T01:51:37;3.40;99.90
5806;DHT22;2929;50.810;8.342;2023-12-22T01:54:11;3.50;99.90
5806;DHT22;2929;50.810;8.342;2023-12-22T01:56:43;3.40;99.90
5806;DHT22;2929;50.810;8.342;2023-12-22T01:59:13;3.40;99.90
5806;DHT22;2929;50.810;8.342;2023-12-22T02:01:48;3.40;99.90
5806;DHT22;2929;50.810;8.342;2023-12-22T02:04:19;3.40;99.90
5806;DHT22;2929;50.810;8.342;2023-12-22T02:06:53;3.30;99.90
5806;DHT22;2929;50.810;8.342;2023-12-22T02:09:30;3.20;99.90
5806;DHT22;2929;50.810;8.342;2023-12-22T02:12:02;3.20;99.90
5806;DHT22;2929;50.810;8.342;2023-12-22T02:14:35;3.20;99.90
5806;DHT22;2929;50.810;8.342;2023-12-22T02:17:15;3.30;99.90
5806;DHT22;2929;50.810;8.342;2023-12-22T02:19:51;3.30;99.90
5806;DHT22;2929;50.810;8.342;2023-12-22T02:22:22;3.30;99.90
5806;DHT22;2929;50.810;8.342;2023-12-22T02:24:54;3.40;99.90
5806;DHT22;2929;50.810;8.342;2023-12-22T02:27:32;3.30;99.90
5806;DHT22;2929;50.810;8.342;2023-12-22T02:30:08;3.30;99.90
5806;DHT22;2929;50.810;8.342;2023-12-22T02:32:40;3.30;99.90
5806;DHT22;2929;50.810;8.342;2023-12-22T02:35:14;3.20;99.90
5806;DHT22;2929;50.810;8.342;2023-12-22T02:37:45;3.20;99.90
5806;DHT22;2929;50.810;8.342;2023-12-22T02:40:16;3.20;99.90
5806;DHT22;2929;50.810;8.342;2023-12-22T02:42:45;3.10;99.90
5806;DHT22;2929;50.810;8.342;2023-12-22T02:45:17;3.00;99.90
5806;DHT22;2929;50.810;8.342;2023-12-22T02:47:47;3.00;99.90
5806;DHT22;2929;50.810;8.342;2023-12-22T02:50:16;2.90;99.90
5806;DHT22;2929;50.810;8.342;2023-12-22T02:52:44;2.80;99.90
5806;DHT22;2929;50.810;8.342;2023-12-22T02:55:17;2.80;99.90
5806;DHT22;2929;50.810;8.342;2023-12-22T02:57:48;2.80;99.90
5806;DHT22;2929;50.810;8.342;2023-12-22T03:00:16;2.70;99.90
5806;DHT22;2929;50.810;8.342;2023-12-22T03:02:45;2.70;99.90
5806;DHT22;2929;50.810;8.342;2023-12-22T03:05:14;2.60;99.90
5806;DHT22;2929;50.810;8.342;2023-12-22T03:07:42;2.60;99.90
5806;DHT22;2929;50.810;8.342;2023-12-22T03:10:11;2.50;99.90
5806;DHT22;2929;50.810;8.342;2023-12-22T03:12:41;2.50;99.90
5806;DHT22;2929;50.810;8.342;2023-12-22T03:15:10;2.50;99.90
5806;DHT22;2929;50.810;8.342;2023-12-22T03:17:40;2.50;99.90
5806;DHT22;2929;50.810;8.342;2023-12-22T03:20:11;2.50;99.90
5806;DHT22;2929;50.810;8.342;2023-12-22T03:22:41;2.40;99.90
5806;DHT22;2929;50.810;8.342;2023-12-22T03:25:10;2.30;99.90
5806;DHT22;2929;50.810;8.342;2023-12-22T03:27:42;2.30;99.90
5806;DHT22;2929;50.810;8.342;2023-12-22T03:30:13;2.20;99.90
5806;DHT22;2929;50.810;8.342;2023-12-22T03:32:43;2.20;99.90
5806;DHT22;2929;50.810;8.342;2023-12-22T03:35:13;2.20;99.90
5806;DHT22;2929;50.810;8.342;2023-12-22T03:37:41;2.30;99.90
5806;DHT22;2929;50.810;8.342;2023-12-22T03:40:12;2.30;99.90
5806;DHT22;2929;50.810;8.342;2023-12-22T03:42:43;2.30;99.90
5806;DHT22;2929;50.810;8.342;2023-12-22T03:45:14;2.30;99.90
5806;DHT22;2929;50.810;8.342;2023-12-22T03:47:44;2.40;99.90
5806;DHT22;2929;50.810;8.342;2023-12-22T03:50:16;2.30;99.90
5806;DHT22;2929;50.810;8.342;2023-12-22T03:52:44;2.40;99.90
5806;DHT22;2929;50.810;8.342;2023-12-22T03:55:12;2.40;99.90
5806;DHT22;2929;50.810;8.342;2023-12-22T03:57:42;2.40;99.90
5806;DHT22;2929;50.810;8.342;2023-12-22T04:00:11;2.50;99.90
5806;DHT22;2929;50.810;8.342;2023-12-22T04:02:40;2.40;99.90
5806;DHT22;2929;50.810;8.342;2023-12-22T04:05:11;2.40;99.90
5806;DHT22;2929;50.810;8.342;2023-12-22T04:07:40;2.50;99.90
5806;DHT22;2929;50.810;8.342;2023-12-22T04:10:09;2.50;99.90
5806;DHT22;2929;50.810;8.342;2023-12-22T04:12:42;2.50;99.90
5806;DHT22;2929;50.810;8.342;2023-12-22T04:15:10;2.50;99.90
5806;DHT22;2929;50.810;8.342;2023-12-22T04:17:39;2.40;99.90
5806;DHT22;2929;50.810;8.342;2023-12-22T04:20:08;2.30;99.90
5806;DHT22;2929;50.810;8.342;2023-12-22T04:22:36;2.30;99.90
5806;DHT22;2929;50.810;8.342;2023-12-22T04:25:05;2.20;99.90
5806;DHT22;2929;50.810;8.342;2023-12-22T04:27:34;2.20;99.90
5806;DHT22;2929;50.810;8.342;2023-12-22T04:30:05;2.30;99.90
5806;DHT22;2929;50.810;8.342;2023-12-22T04:32:37;2.30;99.90
5806;DHT22;2929;50.810;8.342;2023-12-22T04:35:08;2.40;99.90
5806;DHT22;2929;50.810;8.342;2023-12-22T04:37:47;2.40;99.90
5806;DHT22;2929;50.810;8.342;2023-12-22T04:40:16;2.20;99.90
5806;DHT22;2929;50.810;8.342;2023-12-22T04:42:46;2.20;99.90
5806;DHT22;2929;50.810;8.342;2023-12-22T04:45:19;2.20;99.90
5806;DHT22;2929;50.810;8.342;2023-12-22T04:47:48;2.20;99.90
5806;DHT22;2929;50.810;8.342;2023-12-22T04:50:16;2.30;99.90
5806;DHT22;2929;50.810;8.342;2023-12-22T04:52:43;2.30;99.90
5806;DHT22;2929;50.810;8.342;2023-12-22T04:55:12;2.30;99.90
5806;DHT22;2929;50.810;8.342;2023-12-22T04:57:41;2.30;99.90
5806;DHT22;2929;50.810;8.342;2023-12-22T05:00:11;2.30;99.90
5806;DHT22;2929;50.810;8.342;2023-12-22T05:02:41;2.40;99.90
5806;DHT22;2929;50.810;8.342;2023-12-22T05:05:10;2.30;99.90
5806;DHT22;2929;50.810;8.342;2023-12-22T05:07:38;2.30;99.90
5806;DHT22;2929;50.810;8.342;2023-12-22T05:10:08;2.30;99.90
5806;DHT22;2929;50.810;8.342;2023-12-22T05:12:36;2.30;99.90
5806;DHT22;2929;50.810;8.342;2023-12-22T05:15:07;2.40;99.90
5806;DHT22;2929;50.810;8.342;2023-12-22T05:17:36;2.50;99.90
5806;DHT22;2929;50.810;8.342;2023-12-22T05:20:11;2.50;99.90
5806;DHT22;2929;50.810;8.342;2023-12-22T05:22:41;2.70;99.90
5806;DHT22;2929;50.810;8.342;2023-12-22T05:25:13;2.70;99.90
5806;DHT22;2929;50.810;8.342;2023-12-22T05:27:42;2.80;99.90
5806;DHT22;2929;50.810;8.342;2023-12-22T05:30:16;3.00;99.90
5806;DHT22;2929;50.810;8.342;2023-12-22T05:32:43;3.00;99.90
5806;DHT22;2929;50.810;8.342;2023-12-22T05:35:14;3.00;99.90
5806;DHT22;2929;50.810;8.342;2023-12-22T05:37:46;3.10;99.90
5806;DHT22;2929;50.810;8.342;2023-12-22T05:40:15;3.30;99.90
5806;DHT22;2929;50.810;8.342;2023-12-22T05:42:50;3.20;99.90
5806;DHT22;2929;50.810;8.342;2023-12-22T05:45:19;3.30;99.90
5806;DHT22;2929;50.810;8.342;2023-12-22T05:47:48;3.30;99.90
5806;DHT22;2929;50.810;8.342;2023-12-22T05:50:23;3.50;99.90
5806;DHT22;2929;50.810;8.342;2023-12-22T05:52:51;3.60;99.90
5806;DHT22;2929;50.810;8.342;2023-12-22T05:55:21;3.60;99.90
5806;DHT22;2929;50.810;8.342;2023-12-22T05:57:49;3.70;99.90
5806;DHT22;2929;50.810;8.342;2023-12-22T06:00:25;3.70;99.90
5806;DHT22;2929;50.810;8.342;2023-12-22T06:02:58;3.70;99.90
5806;DHT22;2929;50.810;8.342;2023-12-22T06:05:31;3.60;99.90
5806;DHT22;2929;50.810;8.342;2023-12-22T06:08:00;3.50;99.90
5806;DHT22;2929;50.810;8.342;2023-12-22T06:10:27;3.40;99.90
5806;DHT22;2929;50.810;8.342;2023-12-22T06:12:54;3.40;99.90
5806;DHT22;2929;50.810;8.342;2023-12-22T06:15:24;3.50;99.90
5806;DHT22;2929;50.810;8.342;2023-12-22T06:17:51;3.40;99.90
5806;DHT22;2929;50.810;8.342;2023-12-22T06:20:17;3.40;99.90
5806;DHT22;2929;50.810;8.342;2023-12-22T06:22:46;3.40;99.90
5806;DHT22;2929;50.810;8.342;2023-12-22T06:25:13;3.50;99.90
5806;DHT22;2929;50.810;8.342;2023-12-22T06:27:40;3.40;99.90
5806;DHT22;2929;50.810;8.342;2023-12-22T06:30:07;3.50;99.90
5806;DHT22;2929;50.810;8.342;2023-12-22T06:32:35;3.40;99.90
5806;DHT22;2929;50.810;8.342;2023-12-22T06:35:06;3.50;99.90
5806;DHT22;2929;50.810;8.342;2023-12-22T06:37:33;3.50;99.90
5806;DHT22;2929;50.810;8.342;2023-12-22T06:40:01;3.50;99.90
5806;DHT22;2929;50.810;8.342;2023-12-22T06:42:28;3.40;99.90
5806;DHT22;2929;50.810;8.342;2023-12-22T06:44:56;3.30;99.90
5806;DHT22;2929;50.810;8.342;2023-12-22T06:47:23;3.30;99.90
5806;DHT22;2929;50.810;8.342;2023-12-22T06:49:52;3.30;99.90
5806;DHT22;2929;50.810;8.342;2023-12-22T06:52:19;3.20;99.90
5806;DHT22;2929;50.810;8.342;2023-12-22T06:54:46;3.20;99.90
5806;DHT22;2929;50.810;8.342;2023-12-22T06:57:15;3.20;99.90
5806;DHT22;2929;50.810;8.342;2023-12-22T06:59:42;3.20;99.90
5806;DHT22;2929;50.810;8.342;2023-12-22T07:02:09;3.20;99.90
5806;DHT22;2929;50.810;8.342;2023-12-22T07:04:36;3.30;99.90
5806;DHT22;2929;50.810;8.342;2023-12-22T07:07:03;3.30;99.90
5806;DHT22;2929;50.810;8.342;2023-12-22T07:09:45;3.30;99.90
5806;DHT22;2929;50.810;8.342;2023-12-22T07:12:12;3.30;99.90
5806;DHT22;2929;50.810;8.342;2023-12-22T07:14:42;3.30;99.90
5806;DHT22;2929;50.810;8.342;2023-12-22T07:17:09;3.40;99.90
5806;DHT22;2929;50.810;8.342;2023-12-22T07:19:37;3.30;99.90
5806;DHT22;2929;50.810;8.342;2023-12-22T07:22:04;3.40;99.90
5806;DHT22;2929;50.810;8.342;2023-12-22T07:24:31;3.40;99.90
5806;DHT22;2929;50.810;8.342;2023-12-22T07:26:58;3.40;99.90
5806;DHT22;2929;50.810;8.342;2023-12-22T07:29:25;3.40;99.90
5806;DHT22;2929;50.810;8.342;2023-12-22T07:31:53;3.50;99.90
5806;DHT22;2929;50.810;8.342;2023-12-22T07:34:20;3.50;99.90
5806;DHT22;2929;50.810;8.342;2023-12-22T07:36:48;3.50;99.90
5806;DHT22;2929;50.810;8.342;2023-12-22T07:39:15;3.30;99.90
5806;DHT22;2929;50.810;8.342;2023-12-22T07:41:44;3.40;99.90
5806;DHT22;2929;50.810;8.342;2023-12-22T07:44:11;3.30;99.90
5806;DHT22;2929;50.810;8.342;2023-12-22T07:46:39;3.40;99.90
5806;DHT22;2929;50.810;8.342;2023-12-22T07:49:07;3.50;99.90
5806;DHT22;2929;50.810;8.342;2023-12-22T07:51:34;3.50;99.90
5806;DHT22;2929;50.810;8.342;2023-12-22T07:54:01;3.50;99.90
5806;DHT22;2929;50.810;8.342;2023-12-22T07:56:28;3.60;99.90
5806;DHT22;2929;50.810;8.342;2023-12-22T07:58:55;3.60;99.90
5806;DHT22;2929;50.810;8.342;2023-12-22T08:01:22;3.60;99.90
5806;DHT22;2929;50.810;8.342;2023-12-22T08:03:49;3.60;99.90
5806;DHT22;2929;50.810;8.342;2023-12-22T08:06:18;3.60;99.90
5806;DHT22;2929;50.810;8.342;2023-12-22T08:08:45;3.60;99.90
5806;DHT22;2929;50.810;8.342;2023-12-22T08:11:11;3.70;99.90
5806;DHT22;2929;50.810;8.342;2023-12-22T08:13:38;3.80;99.90
5806;DHT22;2929;50.810;8.342;2023-12-22T08:16:06;3.90;99.90
5806;DHT22;2929;50.810;8.342;2023-12-22T08:18:33;4.00;99.90
5806;DHT22;2929;50.810;8.342;2023-12-22T08:20:59;3.90;99.90
5806;DHT22;2929;50.810;8.342;2023-12-22T08:23:28;4.00;99.90
5806;DHT22;2929;50.810;8.342;2023-12-22T08:25:56;4.00;99.90
5806;DHT22;2929;50.810;8.342;2023-12-22T08:28:24;4.20;99.90
5806;DHT22;2929;50.810;8.342;2023-12-22T08:30:51;4.20;99.90
5806;DHT22;2929;50.810;8.342;2023-12-22T08:33:19;4.20;99.90
5806;DHT22;2929;50.810;8.342;2023-12-22T08:35:46;4.30;99.90
5806;DHT22;2929;50.810;8.342;2023-12-22T08:38:12;4.40;99.90
5806;DHT22;2929;50.810;8.342;2023-12-22T08:40:40;4.40;99.90
5806;DHT22;2929;50.810;8.342;2023-12-22T08:43:07;4.50;99.90
5806;DHT22;2929;50.810;8.342;2023-12-22T08:45:35;4.50;99.90
5806;DHT22;2929;50.810;8.342;2023-12-22T08:48:02;4.40;99.90
5806;DHT22;2929;50.810;8.342;2023-12-22T08:50:33;4.40;99.90
5806;DHT22;2929;50.810;8.342;2023-12-22T08:53:00;4.30;99.90
5806;DHT22;2929;50.810;8.342;2023-12-22T08:55:27;4.30;99.90
5806;DHT22;2929;50.810;8.342;2023-12-22T08:57:55;4.30;99.90
5806;DHT22;2929;50.810;8.342;2023-12-22T09:00:22;4.40;99.90
5806;DHT22;2929;50.810;8.342;2023-12-22T09:02:49;4.50;99.90
5806;DHT22;2929;50.810;8.342;2023-12-22T09:05:16;4.60;99.90
5806;DHT22;2929;50.810;8.342;2023-12-22T09:07:43;4.70;99.90
5806;DHT22;2929;50.810;8.342;2023-12-22T09:10:11;4.60;99.90
5806;DHT22;2929;50.810;8.342;2023-12-22T09:12:39;4.60;99.90
5806;DHT22;2929;50.810;8.342;2023-12-22T09:15:07;4.60;99.90
5806;DHT22;2929;50.810;8.342;2023-12-22T09:17:34;4.60;99.90
5806;DHT22;2929;50.810;8.342;2023-12-22T09:20:02;4.60;99.90
5806;DHT22;2929;50.810;8.342;2023-12-22T09:22:29;4.70;99.90
5806;DHT22;2929;50.810;8.342;2023-12-22T09:24:56;4.80;99.90
5806;DHT22;2929;50.810;8.342;2023-12-22T09:27:23;4.80;99.90
5806;DHT22;2929;50.810;8.342;2023-12-22T09:29:54;4.90;99.90
5806;DHT22;2929;50.810;8.342;2023-12-22T09:32:22;4.90;99.90
5806;DHT22;2929;50.810;8.342;2023-12-22T09:34:49;4.90;99.90
5806;DHT22;2929;50.810;8.342;2023-12-22T09:37:16;4.90;99.90
5806;DHT22;2929;50.810;8.342;2023-12-22T09:39:43;5.00;99.90
5806;DHT22;2929;50.810;8.342;2023-12-22T09:42:10;5.10;99.90
5806;DHT22;2929;50.810;8.342;2023-12-22T09:44:39;5.10;99.90
5806;DHT22;2929;50.810;8.342;2023-12-22T09:49:40;5.30;99.90
5806;DHT22;2929;50.810;8.342;2023-12-22T09:52:08;5.30;99.90
5806;DHT22;2929;50.810;8.342;2023-12-22T09:54:37;5.40;99.90
5806;DHT22;2929;50.810;8.342;2023-12-22T09:57:05;5.30;99.90
5806;DHT22;2929;50.810;8.342;2023-12-22T09:59:31;5.40;99.90
5806;DHT22;2929;50.810;8.342;2023-12-22T10:02:00;5.40;99.90
5806;DHT22;2929;50.810;8.342;2023-12-22T10:04:29;5.40;99.90
5806;DHT22;2929;50.810;8.342;2023-12-22T10:06:58;5.50;99.90
5806;DHT22;2929;50.810;8.342;2023-12-22T10:09:30;5.50;99.90
5806;DHT22;2929;50.810;8.342;2023-12-22T10:11:58;5.40;99.90
5806;DHT22;2929;50.810;8.342;2023-12-22T10:14:27;5.40;99.90
5806;DHT22;2929;50.810;8.342;2023-12-22T10:16:54;5.30;99.90
5806;DHT22;2929;50.810;8.342;2023-12-22T10:19:21;5.40;99.90
5806;DHT22;2929;50.810;8.342;2023-12-22T10:21:48;5.50;99.90
5806;DHT22;2929;50.810;8.342;2023-12-22T10:24:39;5.40;99.90
5806;DHT22;2929;50.810;8.342;2023-12-22T10:27:09;5.40;99.90
5806;DHT22;2929;50.810;8.342;2023-12-22T10:29:36;5.30;99.90
5806;DHT22;2929;50.810;8.342;2023-12-22T10:32:04;5.20;99.90
5806;DHT22;2929;50.810;8.342;2023-12-22T10:34:31;5.20;99.90
5806;DHT22;2929;50.810;8.342;2023-12-22T10:36:59;5.20;99.90
5806;DHT22;2929;50.810;8.342;2023-12-22T10:39:27;5.20;99.90
5806;DHT22;2929;50.810;8.342;2023-12-22T10:41:56;5.30;99.90
5806;DHT22;2929;50.810;8.342;2023-12-22T10:44:24;5.30;99.90
5806;DHT22;2929;50.810;8.342;2023-12-22T10:46:51;5.30;99.90
5806;DHT22;2929;50.810;8.342;2023-12-22T10:49:19;5.30;99.90
5806;DHT22;2929;50.810;8.342;2023-12-22T10:51:46;5.40;99.90
5806;DHT22;2929;50.810;8.342;2023-12-22T10:54:13;5.50;99.90
5806;DHT22;2929;50.810;8.342;2023-12-22T10:56:40;5.60;99.90
5806;DHT22;2929;50.810;8.342;2023-12-22T10:59:10;5.70;99.90
5806;DHT22;2929;50.810;8.342;2023-12-22T11:01:37;5.70;99.90
5806;DHT22;2929;50.810;8.342;2023-12-22T11:04:07;5.60;99.90
5806;DHT22;2929;50.810;8.342;2023-12-22T11:06:35;5.70;99.90
5806;DHT22;2929;50.810;8.342;2023-12-22T11:09:07;5.70;99.90
5806;DHT22;2929;50.810;8.342;2023-12-22T11:11:36;5.70;99.90
5806;DHT22;2929;50.810;8.342;2023-12-22T11:14:04;5.90;99.90
5806;DHT22;2929;50.810;8.342;2023-12-22T11:16:34;5.90;99.90
5806;DHT22;2929;50.810;8.342;2023-12-22T11:19:02;5.90;99.90
5806;DHT22;2929;50.810;8.342;2023-12-22T11:21:30;6.00;99.90
5806;DHT22;2929;50.810;8.342;2023-12-22T11:23:57;6.00;99.90
5806;DHT22;2929;50.810;8.342;2023-12-22T11:26:25;6.20;99.90
5806;DHT22;2929;50.810;8.342;2023-12-22T11:28:53;6.20;99.90
5806;DHT22;2929;50.810;8.342;2023-12-22T11:31:20;6.20;99.90
5806;DHT22;2929;50.810;8.342;2023-12-22T11:33:49;6.20;99.90
5806;DHT22;2929;50.810;8.342;2023-12-22T11:36:18;6.20;99.90
5806;DHT22;2929;50.810;8.342;2023-12-22T11:38:45;6.20;99.90
5806;DHT22;2929;50.810;8.342;2023-12-22T11:41:15;6.20;99.90
5806;DHT22;2929;50.810;8.342;2023-12-22T11:43:44;6.20;99.90
5806;DHT22;2929;50.810;8.342;2023-12-22T11:46:12;6.20;99.90
5806;DHT22;2929;50.810;8.342;2023-12-22T11:48:48;6.20;99.90
5806;DHT22;2929;50.810;8.342;2023-12-22T11:51:16;6.20;99.90
5806;DHT22;2929;50.810;8.342;2023-12-22T11:53:43;6.20;99.90
5806;DHT22;2929;50.810;8.342;2023-12-22T11:56:12;6.10;99.90
5806;DHT22;2929;50.810;8.342;2023-12-22T11:58:40;6.10;99.90
5806;DHT22;2929;50.810;8.342;2023-12-22T12:01:10;6.00;99.90
5806;DHT22;2929;50.810;8.342;2023-12-22T12:03:40;6.00;99.90
5806;DHT22;2929;50.810;8.342;2023-12-22T12:06:14;5.90;99.90
5806;DHT22;2929;50.810;8.342;2023-12-22T12:08:42;5.80;99.90
5806;DHT22;2929;50.810;8.342;2023-12-22T12:11:09;5.60;99.90
5806;DHT22;2929;50.810;8.342;2023-12-22T12:13:41;5.50;99.90
5806;DHT22;2929;50.810;8.342;2023-12-22T12:16:08;5.50;99.90
5806;DHT22;2929;50.810;8.342;2023-12-22T12:18:37;5.40;99.90
5806;DHT22;2929;50.810;8.342;2023-12-22T12:21:06;5.40;99.90
5806;DHT22;2929;50.810;8.342;2023-12-22T12:23:38;5.40;99.90
5806;DHT22;2929;50.810;8.342;2023-12-22T12:26:08;5.30;99.90
5806;DHT22;2929;50.810;8.342;2023-12-22T12:28:36;5.30;99.90
5806;DHT22;2929;50.810;8.342;2023-12-22T12:31:05;5.20;99.90
5806;DHT22;2929;50.810;8.342;2023-12-22T12:33:33;5.20;99.90
5806;DHT22;2929;50.810;8.342;2023-12-22T12:36:02;5.20;99.90
5806;DHT22;2929;50.810;8.342;2023-12-22T12:38:40;5.10;99.90
5806;DHT22;2929;50.810;8.342;2023-12-22T12:41:10;5.20;99.90
5806;DHT22;2929;50.810;8.342;2023-12-22T12:43:42;5.20;99.90
5806;DHT22;2929;50.810;8.342;2023-12-22T12:46:09;5.20;99.90
5806;DHT22;2929;50.810;8.342;2023-12-22T12:48:36;5.20;99.90
5806;DHT22;2929;50.810;8.342;2023-12-22T12:51:04;5.20;99.90
5806;DHT22;2929;50.810;8.342;2023-12-22T12:53:32;5.30;99.90
5806;DHT22;2929;50.810;8.342;2023-12-22T12:56:01;5.30;99.90
5806;DHT22;2929;50.810;8.342;2023-12-22T12:58:28;5.30;99.90
5806;DHT22;2929;50.810;8.342;2023-12-22T13:01:05;5.20;99.90
5806;DHT22;2929;50.810;8.342;2023-12-22T13:03:32;5.30;99.90
5806;DHT22;2929;50.810;8.342;2023-12-22T13:06:06;5.30;99.90
5806;DHT22;2929;50.810;8.342;2023-12-22T13:08:33;5.20;99.90
5806;DHT22;2929;50.810;8.342;2023-12-22T13:11:02;5.30;99.90
5806;DHT22;2929;50.810;8.342;2023-12-22T13:13:29;5.30;99.90
5806;DHT22;2929;50.810;8.342;2023-12-22T13:15:56;5.50;99.90
5806;DHT22;2929;50.810;8.342;2023-12-22T13:18:23;5.80;99.90
5806;DHT22;2929;50.810;8.342;2023-12-22T13:20:51;5.90;99.90
5806;DHT22;2929;50.810;8.342;2023-12-22T13:23:18;6.00;99.90
5806;DHT22;2929;50.810;8.342;2023-12-22T13:25:46;6.20;99.90
5806;DHT22;2929;50.810;8.342;2023-12-22T13:28:25;6.40;99.90
5806;DHT22;2929;50.810;8.342;2023-12-22T13:30:52;6.50;99.90
5806;DHT22;2929;50.810;8.342;2023-12-22T13:33:19;6.60;99.90
5806;DHT22;2929;50.810;8.342;2023-12-22T13:35:46;6.70;99.90
5806;DHT22;2929;50.810;8.342;2023-12-22T13:38:17;6.70;99.90
5806;DHT22;2929;50.810;8.342;2023-12-22T13:40:45;6.80;99.90
5806;DHT22;2929;50.810;8.342;2023-12-22T13:43:14;6.80;99.90
5806;DHT22;2929;50.810;8.342;2023-12-22T13:45:41;6.80;99.90
5806;DHT22;2929;50.810;8.342;2023-12-22T13:48:09;6.90;99.90
5806;DHT22;2929;50.810;8.342;2023-12-22T13:50:36;6.80;99.90
5806;DHT22;2929;50.810;8.342;2023-12-22T13:53:10;6.80;99.90
5806;DHT22;2929;50.810;8.342;2023-12-22T13:55:38;6.80;99.90
5806;DHT22;2929;50.810;8.342;2023-12-22T13:58:05;6.80;99.90
5806;DHT22;2929;50.810;8.342;2023-12-22T14:00:33;6.70;99.90
5806;DHT22;2929;50.810;8.342;2023-12-22T14:03:01;6.60;99.90
5806;DHT22;2929;50.810;8.342;2023-12-22T14:05:29;6.50;99.90
5806;DHT22;2929;50.810;8.342;2023-12-22T14:07:56;6.40;99.90
5806;DHT22;2929;50.810;8.342;2023-12-22T14:10:23;6.40;99.90
5806;DHT22;2929;50.810;8.342;2023-12-22T14:12:50;6.50;99.90
5806;DHT22;2929;50.810;8.342;2023-12-22T14:15:17;6.40;99.90
5806;DHT22;2929;50.810;8.342;2023-12-22T14:17:46;6.40;99.90
5806;DHT22;2929;50.810;8.342;2023-12-22T14:20:13;6.40;99.90
5806;DHT22;2929;50.810;8.342;2023-12-22T14:22:40;6.40;99.90
5806;DHT22;2929;50.810;8.342;2023-12-22T14:25:08;6.50;99.90
5806;DHT22;2929;50.810;8.342;2023-12-22T14:27:35;6.50;99.90
5806;DHT22;2929;50.810;8.342;2023-12-22T14:30:02;6.70;99.90
5806;DHT22;2929;50.810;8.342;2023-12-22T14:32:29;6.70;99.90
5806;DHT22;2929;50.810;8.342;2023-12-22T14:34:57;6.60;99.90
5806;DHT22;2929;50.810;8.342;2023-12-22T14:37:24;6.70;99.90
5806;DHT22;2929;50.810;8.342;2023-12-22T14:39:51;6.70;99.90
5806;DHT22;2929;50.810;8.342;2023-12-22T14:42:19;6.70;99.90
5806;DHT22;2929;50.810;8.342;2023-12-22T14:44:47;6.60;99.90
5806;DHT22;2929;50.810;8.342;2023-12-22T14:47:14;6.70;99.90
5806;DHT22;2929;50.810;8.342;2023-12-22T14:49:49;6.70;99.90
5806;DHT22;2929;50.810;8.342;2023-12-22T14:52:19;6.60;99.90
5806;DHT22;2929;50.810;8.342;2023-12-22T14:54:50;6.60;99.90
5806;DHT22;2929;50.810;8.342;2023-12-22T14:57:30;6.60;99.90
5806;DHT22;2929;50.810;8.342;2023-12-22T15:00:00;6.50;99.90
5806;DHT22;2929;50.810;8.342;2023-12-22T15:02:29;6.50;99.90
5806;DHT22;2929;50.810;8.342;2023-12-22T15:04:56;6.40;99.90
5806;DHT22;2929;50.810;8.342;2023-12-22T15:07:24;6.30;99.90
5806;DHT22;2929;50.810;8.342;2023-12-22T15:09:51;6.30;99.90
5806;DHT22;2929;50.810;8.342;2023-12-22T15:12:18;6.40;99.90
5806;DHT22;2929;50.810;8.342;2023-12-22T15:14:45;6.50;99.90
5806;DHT22;2929;50.810;8.342;2023-12-22T15:17:12;6.60;99.90
5806;DHT22;2929;50.810;8.342;2023-12-22T15:19:40;6.60;99.90
5806;DHT22;2929;50.810;8.342;2023-12-22T15:22:08;6.70;99.90
5806;DHT22;2929;50.810;8.342;2023-12-22T15:24:37;6.80;99.90
5806;DHT22;2929;50.810;8.342;2023-12-22T15:27:06;6.80;99.90
5806;DHT22;2929;50.810;8.342;2023-12-22T15:29:33;6.90;99.90
5806;DHT22;2929;50.810;8.342;2023-12-22T15:32:00;6.90;99.90
5806;DHT22;2929;50.810;8.342;2023-12-22T15:34:26;6.80;99.90
5806;DHT22;2929;50.810;8.342;2023-12-22T15:36:53;6.90;99.90
5806;DHT22;2929;50.810;8.342;2023-12-22T15:39:21;6.90;99.90
5806;DHT22;2929;50.810;8.342;2023-12-22T15:41:50;6.90;99.90
5806;DHT22;2929;50.810;8.342;2023-12-22T15:44:17;6.90;99.90
5806;DHT22;2929;50.810;8.342;2023-12-22T15:46:44;6.90;99.90
5806;DHT22;2929;50.810;8.342;2023-12-22T15:49:11;6.90;99.90
5806;DHT22;2929;50.810;8.342;2023-12-22T15:51:38;6.90;99.90
5806;DHT22;2929;50.810;8.342;2023-12-22T15:54:05;6.90;99.90
5806;DHT22;2929;50.810;8.342;2023-12-22T15:56:32;6.90;99.90
5806;DHT22;2929;50.810;8.342;2023-12-22T15:59:00;6.90;99.90
5806;DHT22;2929;50.810;8.342;2023-12-22T16:01:27;7.00;99.90
5806;DHT22;2929;50.810;8.342;2023-12-22T16:03:54;6.90;99.90
5806;DHT22;2929;50.810;8.342;2023-12-22T16:06:21;7.00;99.90
5806;DHT22;2929;50.810;8.342;2023-12-22T16:08:48;6.90;99.90
5806;DHT22;2929;50.810;8.342;2023-12-22T16:11:18;6.90;99.90
5806;DHT22;2929;50.810;8.342;2023-12-22T16:13:45;6.90;99.90
5806;DHT22;2929;50.810;8.342;2023-12-22T16:16:18;6.90;99.90
5806;DHT22;2929;50.810;8.342;2023-12-22T16:18:46;7.00;99.90
5806;DHT22;2929;50.810;8.342;2023-12-22T16:21:13;6.90;99.90
5806;DHT22;2929;50.810;8.342;2023-12-22T16:23:40;6.90;99.90
5806;DHT22;2929;50.810;8.342;2023-12-22T16:26:07;6.90;99.90
5806;DHT22;2929;50.810;8.342;2023-12-22T16:28:34;6.90;99.90